This is the latest recevied weather packets stored in our database for station/object AG7BI. If no packets are shown the sender has not sent any weather packets the latest 1 day(s).
| Time | Temp. | Humidity | Pressure | Rain* | Wind** | Luminosity | Snow |
|---|---|---|---|---|---|---|---|
| 1778030752 | 15° C | 77% | 1015.4 hPa | 0 mm | - | - | - |
| 1778030452 | 15° C | 76% | 1015.5 hPa | 0 mm | - | - | - |
| 1778030152 | 15° C | 76% | 1015.3 hPa | 0 mm | - | - | - |
| 1778029852 | 15° C | 77% | 1015.2 hPa | 0 mm | - | - | - |
| 1778029552 | 15° C | 76% | 1015.3 hPa | 0 mm | - | - | - |
| 1778029252 | 15° C | 75% | 1015.1 hPa | 0 mm | - | - | - |
| 1778028952 | 15° C | 75% | 1015.2 hPa | 0 mm | - | - | - |
| 1778028652 | 15.56° C | 77% | 1015.2 hPa | 0 mm | - | - | - |
| 1778028352 | 15.56° C | 76% | 1015.1 hPa | 0 mm | - | - | - |
| 1778028052 | 15.56° C | 76% | 1015.1 hPa | 0 mm | - | - | - |
| 1778027752 | 15.56° C | 75% | 1015.1 hPa | 0 mm | - | - | - |
| 1778027452 | 15.56° C | 77% | 1015.2 hPa | 0 mm | - | - | - |
| 1778027152 | 15.56° C | 75% | 1015.2 hPa | 0 mm | - | - | - |
| 1778026852 | 15.56° C | 75% | 1015.2 hPa | 0 mm | - | - | - |
| 1778026552 | 15.56° C | 76% | 1015.1 hPa | 0 mm | - | - | - |
| 1778026252 | 15.56° C | 74% | 1015.4 hPa | 0 mm | - | - | - |
| 1778019352 | 15.56° C | 75% | 1016.2 hPa | 0 mm | - | - | - |
| 1778015452 | 15.56° C | 72% | 1016.5 hPa | 0 mm | - | - | - |
| 1778014253 | 16.11° C | 71% | 1016.4 hPa | 0 mm | - | - | - |
| 1778007352 | 14.44° C | 77% | 1016.7 hPa | 0 mm | - | - | - |
| 1778006452 | 13.89° C | 77% | 1016.4 hPa | 0 mm | - | - | - |
| 1778005852 | 13.89° C | 78% | 1016.7 hPa | 0 mm | - | - | - |
| 1778005552 | 13.89° C | 78% | 1016.4 hPa | 0 mm | - | - | - |
| 1778005252 | 13.89° C | 78% | 1016.5 hPa | 0 mm | - | - | - |
| 1778004652 | 13.33° C | 79% | 1016.5 hPa | 0 mm | - | - | - |
* Rain latest hour (hover to see other rain measurements)
** Current wind speed in m/s (hover to see current wind gust speed)